createdAt,value
2017-06-04T00:00:48.723Z,0
2017-06-04T00:01:48.086Z,0
2017-06-04T00:02:48.376Z,0
2017-06-04T00:03:48.364Z,0
2017-06-04T00:04:48.356Z,0
2017-06-04T00:05:48.354Z,0
2017-06-04T00:06:48.033Z,0
2017-06-04T00:07:47.698Z,0
2017-06-04T00:08:48.323Z,0
2017-06-04T00:09:48.311Z,0
2017-06-04T00:10:48.620Z,0
2017-06-04T00:11:48.606Z,0
2017-06-04T00:12:47.969Z,0
2017-06-04T00:13:48.586Z,0
2017-06-04T00:14:48.263Z,0
2017-06-04T00:15:48.276Z,0
2017-06-04T00:16:48.237Z,0
2017-06-04T00:17:47.917Z,0
2017-06-04T00:18:48.223Z,0
2017-06-04T00:19:48.733Z,0
2017-06-04T00:20:48.524Z,0
2017-06-04T00:21:48.508Z,0
2017-06-04T00:22:48.184Z,0
2017-06-04T00:23:48.179Z,0
2017-06-04T00:24:48.171Z,0
2017-06-04T00:25:47.841Z,0
2017-06-04T00:26:48.148Z,0
2017-06-04T00:27:47.820Z,0
2017-06-04T00:28:47.808Z,0
2017-06-04T00:29:47.804Z,0
2017-06-04T00:30:48.115Z,0
2017-06-04T00:31:48.129Z,0
2017-06-04T00:32:48.405Z,0
2017-06-04T00:33:47.757Z,0
2017-06-04T00:34:48.062Z,0
2017-06-04T00:35:48.058Z,0
2017-06-04T00:36:48.058Z,0
2017-06-04T00:37:48.087Z,0
2017-06-04T00:38:48.028Z,0
2017-06-04T00:39:47.704Z,0
2017-06-04T00:40:48.323Z,0
2017-06-04T00:41:47.709Z,0
2017-06-04T00:42:48.041Z,0
2017-06-04T00:43:48.291Z,0
2017-06-04T00:44:47.653Z,0
2017-06-04T00:45:47.961Z,0
2017-06-04T00:46:47.635Z,0
2017-06-04T00:47:48.341Z,0
2017-06-04T00:48:48.246Z,0
2017-06-04T00:49:47.918Z,0
2017-06-04T00:50:47.912Z,0
2017-06-04T00:51:47.902Z,0
2017-06-04T00:52:48.202Z,0
2017-06-04T00:53:47.892Z,0
2017-06-04T00:54:47.872Z,0
2017-06-04T00:55:47.543Z,0
2017-06-04T00:57:19.295Z,0
2017-06-04T00:57:47.889Z,0
2017-06-04T00:58:48.144Z,0
2017-06-04T00:59:47.824Z,0
2017-06-04T01:00:47.818Z,0
2017-06-04T01:01:47.492Z,0
2017-06-04T01:02:47.480Z,0
2017-06-04T01:03:47.152Z,0
2017-06-04T01:04:47.775Z,0
2017-06-04T01:05:47.760Z,0
2017-06-04T01:06:47.143Z,0
2017-06-04T01:07:48.054Z,0
2017-06-04T01:08:47.097Z,0
2017-06-04T01:09:48.038Z,0
2017-06-04T01:10:47.711Z,0
2017-06-04T01:11:48.017Z,0
2017-06-04T01:12:48.003Z,0
2017-06-04T01:13:47.995Z,0
2017-06-04T01:14:47.676Z,0
2017-06-04T01:15:47.656Z,0
2017-06-04T01:16:47.967Z,0
2017-06-04T01:17:47.641Z,0
2017-06-04T01:18:47.938Z,0
2017-06-04T01:19:47.306Z,0
2017-06-04T01:20:46.982Z,0
2017-06-04T01:21:47.285Z,0
2017-06-04T01:22:47.908Z,0
2017-06-04T01:23:47.584Z,0
2017-06-04T01:24:46.938Z,0
2017-06-04T01:25:47.880Z,0
2017-06-04T01:26:47.864Z,0
2017-06-04T01:27:47.224Z,0
2017-06-04T01:28:47.529Z,0
2017-06-04T01:29:47.203Z,0
2017-06-04T01:30:47.514Z,0
2017-06-04T01:31:47.495Z,0
2017-06-04T01:32:47.179Z,0
2017-06-04T01:33:47.837Z,0
2017-06-04T01:34:47.147Z,0
2017-06-04T01:35:47.142Z,0
2017-06-04T01:36:47.458Z,0
2017-06-04T01:37:47.430Z,0
2017-06-04T01:38:47.759Z,0
2017-06-04T01:39:47.746Z,0
2017-06-04T01:40:47.737Z,0
2017-06-04T01:41:47.110Z,0
2017-06-04T01:42:47.389Z,0
2017-06-04T01:43:47.053Z,0
2017-06-04T01:44:46.744Z,0
2017-06-04T01:45:47.681Z,0
2017-06-04T01:46:47.025Z,0
2017-06-04T01:47:47.640Z,0
2017-06-04T01:48:47.320Z,0
2017-06-04T01:49:46.993Z,0
2017-06-04T01:50:47.294Z,0
2017-06-04T01:51:47.594Z,0
2017-06-04T01:52:47.276Z,0
2017-06-04T01:53:47.007Z,0
2017-06-04T01:54:47.567Z,0
2017-06-04T01:55:47.238Z,0
2017-06-04T01:56:46.916Z,0
2017-06-04T01:57:47.219Z,0
2017-06-04T01:58:46.897Z,0
2017-06-04T01:59:46.588Z,0
2017-06-04T02:00:46.560Z,0
2017-06-04T02:01:47.504Z,0
2017-06-04T02:02:46.851Z,0
2017-06-04T02:03:46.848Z,0
2017-06-04T02:04:46.833Z,0
2017-06-04T02:05:46.825Z,0
2017-06-04T02:06:47.129Z,0
2017-06-04T02:07:47.115Z,0
2017-06-04T02:08:46.790Z,0
2017-06-04T02:09:47.424Z,0
2017-06-04T02:10:47.079Z,0
2017-06-04T02:11:46.765Z,0
2017-06-04T02:12:47.060Z,0
2017-06-04T02:13:47.094Z,0
2017-06-04T02:14:47.037Z,0
2017-06-04T02:15:46.709Z,0
2017-06-04T02:16:47.029Z,0
2017-06-04T02:17:47.314Z,0
2017-06-04T02:18:46.678Z,0
2017-06-04T02:19:47.184Z,0
2017-06-04T02:20:46.972Z,0
2017-06-04T02:21:47.280Z,0
2017-06-04T02:22:47.264Z,0
2017-06-04T02:23:46.629Z,0
2017-06-04T02:24:46.614Z,0
2017-06-04T02:25:47.234Z,0
2017-06-04T02:26:46.907Z,0
2017-06-04T02:27:47.212Z,0
2017-06-04T02:28:46.574Z,0
2017-06-04T02:29:46.564Z,0
2017-06-04T02:30:46.867Z,0
2017-06-04T02:31:47.175Z,0
2017-06-04T02:32:46.847Z,0
2017-06-04T02:33:46.832Z,0
2017-06-04T02:34:47.139Z,0
2017-06-04T02:35:46.809Z,0
2017-06-04T02:36:46.803Z,0
2017-06-04T02:37:46.787Z,0
2017-06-04T02:38:46.805Z,0
2017-06-04T02:39:46.139Z,0
2017-06-04T02:40:47.075Z,0
2017-06-04T02:41:46.753Z,0
2017-06-04T02:42:46.736Z,0
2017-06-04T02:43:46.098Z,0
2017-06-04T02:44:46.117Z,0
2017-06-04T02:45:46.079Z,0
2017-06-04T02:46:46.702Z,0
2017-06-04T02:47:46.378Z,0
2017-06-04T02:48:46.044Z,0
2017-06-04T02:49:46.667Z,4
2017-06-04T02:50:46.963Z,4
2017-06-04T02:51:46.645Z,4
2017-06-04T02:52:46.638Z,4
2017-06-04T02:53:46.623Z,4
2017-06-04T02:54:46.613Z,4
2017-06-04T02:55:46.594Z,8
2017-06-04T02:56:46.273Z,4
2017-06-04T02:57:46.890Z,8
2017-06-04T02:58:46.883Z,8
2017-06-04T02:59:46.559Z,8
2017-06-04T03:00:46.546Z,8
2017-06-04T03:01:46.537Z,8
2017-06-04T03:02:46.526Z,12
2017-06-04T03:03:46.510Z,16
2017-06-04T03:04:46.186Z,12
2017-06-04T03:05:46.181Z,16
2017-06-04T03:06:46.481Z,16
2017-06-04T03:07:46.470Z,20
2017-06-04T03:08:46.775Z,20
2017-06-04T03:09:46.767Z,24
2017-06-04T03:10:46.759Z,24
2017-06-04T03:11:46.433Z,24
2017-06-04T03:12:46.413Z,24
2017-06-04T03:13:45.778Z,24
2017-06-04T03:14:46.086Z,32
2017-06-04T03:15:46.702Z,32
2017-06-04T03:16:46.378Z,32
2017-06-04T03:17:46.361Z,36
2017-06-04T03:18:46.038Z,40
2017-06-04T03:19:46.030Z,40
2017-06-04T03:20:46.023Z,44
2017-06-04T03:21:46.325Z,44
2017-06-04T03:22:46.318Z,52
2017-06-04T03:23:46.616Z,52
2017-06-04T03:24:45.982Z,60
2017-06-04T03:25:46.594Z,60
2017-06-04T03:26:45.642Z,68
2017-06-04T03:27:45.953Z,68
2017-06-04T03:28:45.619Z,76
2017-06-04T03:29:46.601Z,80
2017-06-04T03:30:45.920Z,88
2017-06-04T03:31:45.902Z,96
2017-06-04T03:32:45.888Z,108
2017-06-04T03:33:46.224Z,116
2017-06-04T03:34:46.500Z,124
2017-06-04T03:35:45.859Z,136
2017-06-04T03:36:45.849Z,148
2017-06-04T03:37:45.837Z,160
2017-06-04T03:38:46.138Z,164
2017-06-04T03:39:46.500Z,172
2017-06-04T03:40:46.119Z,184
2017-06-04T03:41:46.112Z,188
2017-06-04T03:42:45.783Z,200
2017-06-04T03:43:46.397Z,212
2017-06-04T03:44:46.390Z,228
2017-06-04T03:45:46.380Z,244
2017-06-04T03:46:46.060Z,260
2017-06-04T03:47:46.360Z,276
2017-06-04T03:48:46.029Z,296
2017-06-04T03:49:46.020Z,308
2017-06-04T03:50:46.017Z,320
2017-06-04T03:51:46.318Z,332
2017-06-04T03:52:45.990Z,340
2017-06-04T03:53:45.984Z,340
2017-06-04T03:54:45.708Z,348
2017-06-04T03:55:46.276Z,368
2017-06-04T03:56:45.631Z,388
2017-06-04T03:57:45.943Z,408
2017-06-04T03:58:45.303Z,436
2017-06-04T03:59:46.284Z,460
2017-06-04T04:00:46.216Z,504
2017-06-04T04:01:46.209Z,552
2017-06-04T04:02:45.884Z,588
2017-06-04T04:03:45.868Z,624
2017-06-04T04:04:46.175Z,652
2017-06-04T04:05:46.170Z,672
2017-06-04T04:06:45.850Z,692
2017-06-04T04:07:46.142Z,708
2017-06-04T04:08:46.135Z,728
2017-06-04T04:09:45.805Z,744
2017-06-04T04:10:46.123Z,756
2017-06-04T04:11:45.784Z,776
2017-06-04T04:12:46.097Z,792
2017-06-04T04:13:45.450Z,808
2017-06-04T04:14:46.076Z,832
2017-06-04T04:15:45.745Z,860
2017-06-04T04:16:45.738Z,888
2017-06-04T04:17:45.725Z,904
2017-06-04T04:18:45.709Z,920
2017-06-04T04:19:45.903Z,932
2017-06-04T04:20:45.374Z,944
2017-06-04T04:21:45.673Z,952
2017-06-04T04:22:45.980Z,956
2017-06-04T04:23:45.970Z,960
2017-06-04T04:24:45.963Z,964
2017-06-04T04:25:45.950Z,972
2017-06-04T04:26:45.623Z,980
2017-06-04T04:27:45.300Z,984
2017-06-04T04:28:45.602Z,988
2017-06-04T04:29:45.621Z,996
2017-06-04T04:30:45.592Z,1000
2017-06-04T04:31:45.263Z,1012
2017-06-04T04:32:45.565Z,1024
2017-06-04T04:33:45.289Z,1040
2017-06-04T04:34:45.284Z,1060
2017-06-04T04:35:45.228Z,1080
2017-06-04T04:36:45.545Z,1104
2017-06-04T04:37:45.823Z,1132
2017-06-04T04:38:45.198Z,1152
2017-06-04T04:39:45.175Z,1136
2017-06-04T04:40:45.509Z,1172
2017-06-04T04:41:45.786Z,1212
2017-06-04T04:42:45.452Z,1192
2017-06-04T04:43:45.444Z,1200
2017-06-04T04:44:45.115Z,1276
2017-06-04T04:45:45.110Z,1348
2017-06-04T04:46:44.785Z,1396
2017-06-04T04:47:45.399Z,1440
2017-06-04T04:48:45.383Z,1468
2017-06-04T04:49:45.379Z,1496
2017-06-04T04:50:45.052Z,1520
2017-06-04T04:51:45.361Z,1544
2017-06-04T04:52:45.350Z,1580
2017-06-04T04:53:45.334Z,1616
2017-06-04T04:54:45.322Z,1648
2017-06-04T04:55:45.635Z,1656
2017-06-04T04:56:45.303Z,1652
2017-06-04T04:57:45.300Z,1672
2017-06-04T04:58:45.286Z,1708
2017-06-04T04:59:45.273Z,1708
2017-06-04T05:00:45.635Z,1732
2017-06-04T05:01:45.250Z,1808
2017-06-04T05:02:44.926Z,1856
2017-06-04T05:03:45.545Z,1888
2017-06-04T05:04:45.228Z,1920
2017-06-04T05:05:45.223Z,1960
2017-06-04T05:06:44.566Z,1984
2017-06-04T05:07:45.190Z,1960
2017-06-04T05:08:45.508Z,1444
2017-06-04T05:09:45.191Z,1388
2017-06-04T05:10:45.487Z,1124
2017-06-04T05:11:44.848Z,1236
2017-06-04T05:12:45.452Z,1528
2017-06-04T05:13:44.826Z,1896
2017-06-04T05:14:45.114Z,2316
2017-06-04T05:15:45.111Z,2620
2017-06-04T05:16:45.091Z,2764
2017-06-04T05:17:44.766Z,2848
2017-06-04T05:18:45.065Z,2900
2017-06-04T05:19:44.742Z,2948
2017-06-04T05:20:45.048Z,2996
2017-06-04T05:21:45.041Z,3056
2017-06-04T05:22:45.340Z,3120
2017-06-04T05:23:45.020Z,3192
2017-06-04T05:24:45.322Z,3268
2017-06-04T05:25:44.681Z,3360
2017-06-04T05:26:44.672Z,3448
2017-06-04T05:27:44.975Z,3520
2017-06-04T05:28:45.285Z,3584
2017-06-04T05:29:45.277Z,3648
2017-06-04T05:30:44.948Z,3696
2017-06-04T05:31:44.933Z,3744
2017-06-04T05:32:45.267Z,3784
2017-06-04T05:33:45.226Z,3808
2017-06-04T05:34:44.914Z,3832
2017-06-04T05:35:44.313Z,3852
2017-06-04T05:36:44.881Z,3876
2017-06-04T05:37:44.558Z,3892
2017-06-04T05:38:44.855Z,3912
2017-06-04T05:39:44.850Z,3940
2017-06-04T05:40:44.538Z,3944
2017-06-04T05:41:44.512Z,3952
2017-06-04T05:42:44.501Z,3912
2017-06-04T05:43:45.123Z,3856
2017-06-04T05:44:44.798Z,3812
2017-06-04T05:45:44.523Z,3756
2017-06-04T05:46:44.148Z,3736
2017-06-04T05:47:44.455Z,3720
2017-06-04T05:48:45.069Z,3708
2017-06-04T05:49:44.743Z,3696
2017-06-04T05:50:44.423Z,3704
2017-06-04T05:51:44.420Z,3712
2017-06-04T05:52:45.044Z,3744
2017-06-04T05:53:44.393Z,3760
2017-06-04T05:54:45.016Z,3824
2017-06-04T05:55:44.687Z,3916
2017-06-04T05:56:44.676Z,3952
2017-06-04T05:57:44.670Z,4044
2017-06-04T05:58:44.666Z,4152
2017-06-04T05:59:44.964Z,4280
2017-06-04T06:00:44.651Z,4384
2017-06-04T06:01:44.343Z,4456
2017-06-04T06:02:44.302Z,4528
2017-06-04T06:03:44.609Z,4524
2017-06-04T06:04:44.597Z,4636
2017-06-04T06:05:44.272Z,4632
2017-06-04T06:06:43.947Z,4716
2017-06-04T06:07:44.252Z,4800
2017-06-04T06:08:44.561Z,4900
2017-06-04T06:09:43.922Z,4988
2017-06-04T06:10:44.224Z,5084
2017-06-04T06:11:44.213Z,5124
2017-06-04T06:12:44.515Z,5184
2017-06-04T06:13:44.232Z,5216
2017-06-04T06:14:44.498Z,5412
2017-06-04T06:15:43.865Z,5520
2017-06-04T06:16:44.794Z,5640
2017-06-04T06:17:44.471Z,5740
2017-06-04T06:18:44.459Z,5792
2017-06-04T06:19:44.862Z,5888
2017-06-04T06:20:44.445Z,5940
2017-06-04T06:21:44.110Z,6056
2017-06-04T06:22:44.103Z,6140
2017-06-04T06:23:44.410Z,6140
2017-06-04T06:24:44.747Z,6140
2017-06-04T06:25:44.411Z,6136
2017-06-04T06:26:44.379Z,6136
2017-06-04T06:27:43.743Z,6156
2017-06-04T06:28:44.369Z,6244
2017-06-04T06:29:44.663Z,6264
2017-06-04T06:30:44.660Z,6256
2017-06-04T06:31:44.658Z,6300
2017-06-04T06:32:44.633Z,6344
2017-06-04T06:33:44.001Z,6384
2017-06-04T06:34:44.330Z,6428
2017-06-04T06:35:43.978Z,6468
2017-06-04T06:36:44.286Z,6512
2017-06-04T06:37:44.600Z,6564
2017-06-04T06:38:44.267Z,6668
2017-06-04T06:39:44.266Z,6748
2017-06-04T06:40:44.253Z,6820
2017-06-04T06:41:43.922Z,6920
2017-06-04T06:42:44.240Z,6988
2017-06-04T06:43:44.563Z,7076
2017-06-04T06:44:44.208Z,7252
2017-06-04T06:45:43.886Z,7288
2017-06-04T06:46:44.196Z,7780
2017-06-04T06:47:43.870Z,8436
2017-06-04T06:48:43.857Z,8976
2017-06-04T06:49:44.487Z,8280
2017-06-04T06:50:43.837Z,8668
2017-06-04T06:51:44.469Z,8872
2017-06-04T06:52:44.448Z,8572
2017-06-04T06:53:43.505Z,8292
2017-06-04T06:54:44.121Z,8016
2017-06-04T06:55:43.802Z,7992
2017-06-04T06:56:44.425Z,8108
2017-06-04T06:57:43.772Z,8148
2017-06-04T06:58:43.971Z,8108
2017-06-04T06:59:43.753Z,8056
2017-06-04T07:00:44.063Z,7952
2017-06-04T07:01:43.738Z,7840
2017-06-04T07:02:44.053Z,7888
2017-06-04T07:03:44.040Z,8028
2017-06-04T07:04:44.027Z,8244
2017-06-04T07:05:44.013Z,8616
2017-06-04T07:06:44.321Z,8496
2017-06-04T07:07:43.997Z,8168
2017-06-04T07:08:44.309Z,8628
2017-06-04T07:09:43.979Z,10140
2017-06-04T07:10:43.660Z,10704
2017-06-04T07:11:43.969Z,11380
2017-06-04T07:12:44.269Z,9360
2017-06-04T07:13:43.320Z,8796
2017-06-04T07:14:43.936Z,9224
2017-06-04T07:15:43.925Z,11960
2017-06-04T07:16:43.926Z,13276
2017-06-04T07:17:44.226Z,10568
2017-06-04T07:18:43.909Z,7948
2017-06-04T07:19:43.579Z,8836
2017-06-04T07:20:43.891Z,10772
2017-06-04T07:21:43.884Z,12732
2017-06-04T07:22:43.867Z,14068
2017-06-04T07:23:43.893Z,16416
2017-06-04T07:24:43.855Z,17984
2017-06-04T07:25:43.847Z,15068
2017-06-04T07:26:43.851Z,12596
2017-06-04T07:27:44.139Z,9148
2017-06-04T07:28:43.819Z,11228
2017-06-04T07:29:43.500Z,13532
2017-06-04T07:30:43.491Z,20896
2017-06-04T07:31:43.799Z,18656
2017-06-04T07:32:43.490Z,15328
2017-06-04T07:33:44.105Z,13472
2017-06-04T07:34:43.786Z,9316
2017-06-04T07:35:43.464Z,9700
2017-06-04T07:36:44.078Z,8364
2017-06-04T07:37:43.436Z,13740
2017-06-04T07:38:43.430Z,18976
2017-06-04T07:39:44.059Z,10420
2017-06-04T07:40:44.080Z,13236
2017-06-04T07:41:43.726Z,13960
2017-06-04T07:42:43.085Z,22432
2017-06-04T07:43:44.021Z,29760
2017-06-04T07:44:44.019Z,13036
2017-06-04T07:45:43.690Z,25792
2017-06-04T07:46:43.377Z,23136
2017-06-04T07:47:43.686Z,20640
2017-06-04T07:48:43.367Z,10652
2017-06-04T07:49:43.676Z,11728
2017-06-04T07:50:43.664Z,13112
2017-06-04T07:51:43.662Z,16576
2017-06-04T07:52:43.655Z,19584
2017-06-04T07:53:43.055Z,24384
2017-06-04T07:54:43.332Z,23712
2017-06-04T07:55:43.055Z,30784
2017-06-04T07:56:43.634Z,29760
2017-06-04T07:57:43.310Z,32640
2017-06-04T07:58:43.620Z,32672
2017-06-04T07:59:43.322Z,14180
2017-06-04T08:00:43.299Z,9928
2017-06-04T08:01:43.948Z,9968
2017-06-04T08:02:43.597Z,9936
2017-06-04T08:03:43.588Z,9804
2017-06-04T08:04:43.590Z,7848
2017-06-04T08:05:43.892Z,7752
2017-06-04T08:06:43.261Z,8696
2017-06-04T08:07:43.884Z,17632
2017-06-04T08:08:43.248Z,11784
2017-06-04T08:09:43.270Z,11532
2017-06-04T08:10:43.559Z,19904
2017-06-04T08:11:43.872Z,35680
2017-06-04T08:12:43.853Z,36672
2017-06-04T08:13:43.859Z,40224
2017-06-04T08:14:43.538Z,54112
2017-06-04T08:15:43.523Z,52736
2017-06-04T08:16:43.518Z,51168
2017-06-04T08:17:43.511Z,21920
2017-06-04T08:18:43.816Z,39936
2017-06-04T08:19:43.599Z,27904
2017-06-04T08:20:43.501Z,14072
2017-06-04T08:21:43.544Z,52832
2017-06-04T08:22:43.803Z,50816
2017-06-04T08:23:43.481Z,59840
2017-06-04T08:24:43.483Z,9636
2017-06-04T08:25:43.476Z,24704
2017-06-04T08:26:43.228Z,52032
2017-06-04T08:27:43.511Z,48576
2017-06-04T08:28:43.780Z,55296
2017-06-04T08:29:43.149Z,55168
2017-06-04T08:30:43.156Z,62880
2017-06-04T08:31:43.139Z,61376
2017-06-04T08:32:43.480Z,60192
2017-06-04T08:33:43.447Z,52640
2017-06-04T08:34:43.136Z,49632
2017-06-04T08:35:43.451Z,47872
2017-06-04T08:36:43.447Z,28576
2017-06-04T08:37:43.453Z,17408
2017-06-04T08:38:43.122Z,40224
2017-06-04T08:39:43.438Z,16576
2017-06-04T08:40:42.814Z,29120
2017-06-04T08:41:43.763Z,12020
2017-06-04T08:42:43.121Z,15596
2017-06-04T08:43:43.425Z,29536
2017-06-04T08:44:43.122Z,56928
2017-06-04T08:45:43.112Z,13996
2017-06-04T08:46:43.109Z,27232
2017-06-04T08:47:43.419Z,47616
2017-06-04T08:48:43.444Z,15764
2017-06-04T08:49:43.420Z,58144
2017-06-04T08:50:43.418Z,20928
2017-06-04T08:51:43.739Z,29888
2017-06-04T08:52:43.722Z,13268
2017-06-04T08:53:43.405Z,12832
2017-06-04T08:54:43.719Z,7824
2017-06-04T08:55:43.407Z,10688
2017-06-04T08:56:43.085Z,34016
2017-06-04T08:57:43.394Z,36736
2017-06-04T08:58:43.071Z,17472
2017-06-04T08:59:43.071Z,22944
2017-06-04T09:00:43.700Z,13796
2017-06-04T09:01:43.397Z,12352
2017-06-04T09:02:42.749Z,17088
2017-06-04T09:03:43.085Z,15912
2017-06-04T09:04:43.074Z,14628
2017-06-04T09:05:43.046Z,11088
2017-06-04T09:06:43.672Z,10688
2017-06-04T09:07:43.356Z,15428
2017-06-04T09:08:43.660Z,16284
2017-06-04T09:09:43.688Z,33696
2017-06-04T09:10:43.658Z,26720
2017-06-04T09:11:43.666Z,13464
2017-06-04T09:12:43.333Z,12516
2017-06-04T09:13:43.347Z,67584
2017-06-04T09:14:43.638Z,6856
2017-06-04T09:15:43.011Z,5376
2017-06-04T09:16:43.637Z,5276
2017-06-04T09:17:43.321Z,5828
2017-06-04T09:18:43.629Z,73888
2017-06-04T09:19:43.002Z,71520
2017-06-04T09:20:43.615Z,67904
2017-06-04T09:21:43.628Z,65824
2017-06-04T09:22:43.629Z,60704
2017-06-04T09:23:43.610Z,61280
2017-06-04T09:24:42.659Z,69728
2017-06-04T09:25:43.282Z,63232
2017-06-04T09:26:43.305Z,42176
2017-06-04T09:27:43.643Z,77664
2017-06-04T09:28:43.304Z,76992
2017-06-04T09:29:42.972Z,74816
2017-06-04T09:30:43.272Z,62560
2017-06-04T09:31:43.288Z,55680
2017-06-04T09:32:42.648Z,14848
2017-06-04T09:33:43.680Z,11876
2017-06-04T09:34:42.969Z,81152
2017-06-04T09:35:43.255Z,82880
2017-06-04T09:36:43.596Z,85120
2017-06-04T09:37:43.271Z,10400
2017-06-04T09:38:42.960Z,9704
2017-06-04T09:39:42.945Z,11600
2017-06-04T09:40:43.269Z,12404
2017-06-04T09:41:43.559Z,15536
2017-06-04T09:42:43.563Z,41472
2017-06-04T09:43:43.243Z,14120
2017-06-04T09:44:43.241Z,17888
2017-06-04T09:45:42.954Z,21440
2017-06-04T09:46:43.249Z,15404
2017-06-04T09:47:43.266Z,86368
2017-06-04T09:48:43.268Z,13872
2017-06-04T09:49:42.918Z,9988
2017-06-04T09:50:43.255Z,6664
2017-06-04T09:51:43.242Z,6176
2017-06-04T09:52:43.279Z,6896
2017-06-04T09:53:43.564Z,8224
2017-06-04T09:54:43.227Z,14224
2017-06-04T09:55:42.935Z,9504
2017-06-04T09:56:42.902Z,56064
2017-06-04T09:57:43.219Z,5392
2017-06-04T09:58:43.228Z,5392
2017-06-04T09:59:43.225Z,6324
2017-06-04T10:00:43.534Z,7984
2017-06-04T10:01:43.543Z,8772
2017-06-04T10:02:42.981Z,9192
2017-06-04T10:03:43.227Z,10952
2017-06-04T10:04:43.524Z,58912
2017-06-04T10:05:42.883Z,11944
2017-06-04T10:06:42.584Z,80480
2017-06-04T10:07:43.200Z,73312
2017-06-04T10:08:43.218Z,74880
2017-06-04T10:09:43.196Z,71040
2017-06-04T10:10:43.187Z,72384
2017-06-04T10:11:42.569Z,77248
2017-06-04T10:12:42.879Z,80864
2017-06-04T10:13:43.517Z,82496
2017-06-04T10:14:43.495Z,84160
2017-06-04T10:15:43.484Z,85408
2017-06-04T10:16:43.505Z,86368
2017-06-04T10:17:42.852Z,83360
2017-06-04T10:18:43.166Z,84256
2017-06-04T10:19:43.487Z,69216
2017-06-04T10:20:43.487Z,66336
2017-06-04T10:21:43.477Z,30624
2017-06-04T10:22:43.173Z,25536
2017-06-04T10:23:43.471Z,16544
2017-06-04T10:24:43.171Z,15484
2017-06-04T10:25:43.164Z,13092
2017-06-04T10:26:42.524Z,11564
2017-06-04T10:27:43.154Z,9096
2017-06-04T10:28:42.853Z,7980
2017-06-04T10:29:43.153Z,7420
2017-06-04T10:30:43.174Z,7948
2017-06-04T10:31:43.151Z,8084
2017-06-04T10:32:43.153Z,8292
2017-06-04T10:33:43.473Z,8820
2017-06-04T10:34:43.148Z,9444
2017-06-04T10:35:43.461Z,8732
2017-06-04T10:36:43.156Z,8180
2017-06-04T10:37:43.144Z,7760
2017-06-04T10:38:42.841Z,7468
2017-06-04T10:39:42.866Z,7540
2017-06-04T10:40:43.141Z,7880
2017-06-04T10:41:43.135Z,8248
2017-06-04T10:42:43.141Z,8984
2017-06-04T10:43:42.826Z,9984
2017-06-04T10:44:43.132Z,11112
2017-06-04T10:45:42.814Z,12272
2017-06-04T10:46:43.420Z,13668
2017-06-04T10:47:43.433Z,16068
2017-06-04T10:48:42.543Z,63168
2017-06-04T10:49:42.482Z,73408
2017-06-04T10:50:43.107Z,73632
2017-06-04T10:51:43.090Z,80544
2017-06-04T10:52:42.781Z,68128
2017-06-04T10:53:43.398Z,62880
2017-06-04T10:54:43.080Z,18368
2017-06-04T10:55:43.081Z,114080
2017-06-04T10:56:42.753Z,116128
2017-06-04T10:57:42.439Z,80768
2017-06-04T10:58:43.059Z,13800
2017-06-04T10:59:42.748Z,14092
2017-06-04T11:00:43.373Z,103744
2017-06-04T11:01:43.111Z,91552
2017-06-04T11:02:43.392Z,12208
2017-06-04T11:03:43.058Z,24736
2017-06-04T11:04:43.049Z,9880
2017-06-04T11:05:43.064Z,8712
2017-06-04T11:06:43.060Z,8236
2017-06-04T11:07:42.728Z,7380
2017-06-04T11:08:43.043Z,6540
2017-06-04T11:09:43.038Z,6492
2017-06-04T11:10:43.039Z,6628
2017-06-04T11:11:42.723Z,6620
2017-06-04T11:12:43.380Z,6536
2017-06-04T11:13:43.029Z,6252
2017-06-04T11:14:43.025Z,6092
2017-06-04T11:15:42.706Z,5928
2017-06-04T11:16:43.337Z,5740
2017-06-04T11:17:42.405Z,5344
2017-06-04T11:18:42.694Z,4880
2017-06-04T11:19:43.010Z,4500
2017-06-04T11:20:43.020Z,4196
2017-06-04T11:21:42.995Z,4020
2017-06-04T11:22:42.676Z,3948
2017-06-04T11:23:43.318Z,3972
2017-06-04T11:24:42.989Z,4144
2017-06-04T11:25:43.000Z,4480
2017-06-04T11:26:42.654Z,4880
2017-06-04T11:27:42.979Z,5056
2017-06-04T11:28:43.302Z,4944
2017-06-04T11:29:42.966Z,4740
2017-06-04T11:30:42.639Z,4456
2017-06-04T11:31:42.958Z,4148
2017-06-04T11:32:42.961Z,3760
2017-06-04T11:33:42.644Z,3432
2017-06-04T11:34:43.306Z,3172
2017-06-04T11:35:42.932Z,3028
2017-06-04T11:36:42.936Z,2948
2017-06-04T11:37:42.914Z,2948
2017-06-04T11:38:42.910Z,2988
2017-06-04T11:39:42.907Z,3076
2017-06-04T11:40:43.236Z,3204
2017-06-04T11:41:42.894Z,3396
2017-06-04T11:42:43.198Z,3752
2017-06-04T11:43:43.244Z,4268
2017-06-04T11:44:42.871Z,4876
2017-06-04T11:45:42.554Z,5552
2017-06-04T11:46:42.852Z,6436
2017-06-04T11:47:43.167Z,7648
2017-06-04T11:48:42.847Z,9292
2017-06-04T11:49:42.519Z,12356
2017-06-04T11:50:42.526Z,14184
2017-06-04T11:51:42.225Z,15880
2017-06-04T11:52:43.126Z,36608
2017-06-04T11:53:43.117Z,78560
2017-06-04T11:54:42.488Z,84800
2017-06-04T11:55:42.795Z,86560
2017-06-04T11:56:42.484Z,86848
2017-06-04T11:57:42.782Z,88160
2017-06-04T11:58:42.788Z,85152
2017-06-04T11:59:42.781Z,83008
2017-06-04T12:00:42.781Z,75104
2017-06-04T12:01:42.768Z,76736
2017-06-04T12:02:42.454Z,78048
2017-06-04T12:03:42.444Z,78944
2017-06-04T12:04:42.447Z,81632
2017-06-04T12:05:42.755Z,86176
2017-06-04T12:06:42.756Z,90208
2017-06-04T12:07:42.752Z,89952
2017-06-04T12:08:42.750Z,88800
2017-06-04T12:09:42.438Z,83872
2017-06-04T12:10:42.751Z,79104
2017-06-04T12:11:43.068Z,75968
2017-06-04T12:12:43.061Z,74528
2017-06-04T12:13:42.750Z,75264
2017-06-04T12:14:42.763Z,79520
2017-06-04T12:15:42.434Z,90016
2017-06-04T12:16:42.753Z,99232
2017-06-04T12:17:43.072Z,99104
2017-06-04T12:18:42.438Z,103936
2017-06-04T12:19:42.438Z,102144
2017-06-04T12:20:42.325Z,96480
2017-06-04T12:21:42.762Z,86880
2017-06-04T12:22:43.079Z,74560
2017-06-04T12:23:43.072Z,65728
2017-06-04T12:24:42.466Z,29728
2017-06-04T12:25:42.766Z,58144
2017-06-04T12:26:42.773Z,52832
2017-06-04T12:27:42.766Z,71072
2017-06-04T12:28:42.459Z,27712
2017-06-04T12:29:42.776Z,12668
2017-06-04T12:30:43.105Z,12704
2017-06-04T12:31:42.772Z,15108
2017-06-04T12:32:42.466Z,19776
2017-06-04T12:33:42.158Z,55872
2017-06-04T12:34:42.780Z,19456
2017-06-04T12:35:42.485Z,36256
2017-06-04T12:36:43.094Z,56064
2017-06-04T12:37:42.478Z,23872
2017-06-04T12:38:43.105Z,37312
2017-06-04T12:39:42.840Z,14520
2017-06-04T12:40:42.786Z,8920
2017-06-04T12:41:43.113Z,6688
2017-06-04T12:42:42.793Z,5356
2017-06-04T12:43:42.167Z,4852
2017-06-04T12:44:42.479Z,4572
2017-06-04T12:45:42.475Z,4272
2017-06-04T12:46:42.476Z,4048
2017-06-04T12:47:43.098Z,3752
2017-06-04T12:48:42.464Z,3432
2017-06-04T12:49:42.786Z,3196
2017-06-04T12:50:42.783Z,2924
2017-06-04T12:51:42.147Z,2636
2017-06-04T12:52:42.780Z,2440
2017-06-04T12:53:43.096Z,2244
2017-06-04T12:54:42.461Z,2020
2017-06-04T12:55:42.781Z,1824
2017-06-04T12:56:43.291Z,1676
2017-06-04T12:57:42.764Z,1576
2017-06-04T12:58:43.074Z,1492
2017-06-04T12:59:42.760Z,1444
2017-06-04T13:00:42.660Z,1404
2017-06-04T13:01:42.756Z,1384
2017-06-04T13:02:42.446Z,1368
2017-06-04T13:03:42.762Z,1352
2017-06-04T13:04:42.750Z,1344
2017-06-04T13:05:42.422Z,1324
2017-06-04T13:06:42.413Z,1316
2017-06-04T13:07:42.726Z,1328
2017-06-04T13:08:42.809Z,1364
2017-06-04T13:09:42.450Z,1400
2017-06-04T13:10:42.713Z,1376
2017-06-04T13:11:42.404Z,1224
2017-06-04T13:12:42.711Z,1048
2017-06-04T13:13:42.386Z,1032
2017-06-04T13:14:42.376Z,1156
2017-06-04T13:15:43.000Z,1312
2017-06-04T13:16:42.684Z,1420
2017-06-04T13:17:42.683Z,1580
2017-06-04T13:18:42.696Z,1784
2017-06-04T13:19:42.673Z,1964
2017-06-04T13:20:42.349Z,2124
2017-06-04T13:21:42.652Z,2240
2017-06-04T13:22:42.342Z,2112
2017-06-04T13:23:42.641Z,1760
2017-06-04T13:24:42.061Z,1412
2017-06-04T13:25:42.636Z,1336
2017-06-04T13:26:42.630Z,1452
2017-06-04T13:27:42.931Z,1652
2017-06-04T13:28:42.299Z,1740
2017-06-04T13:29:42.610Z,1912
2017-06-04T13:30:42.284Z,2004
2017-06-04T13:31:42.277Z,1932
2017-06-04T13:32:42.268Z,1868